sensor_id;sensor_type;location;lat;lon;timestamp;P1;durP1;ratioP1;P2;durP2;ratioP2
63693;SDS011;49839;51.798;10.954;2023-09-18T00:01:02;6.80;;;2.72;;
63693;SDS011;49839;51.798;10.954;2023-09-18T00:03:30;6.97;;;3.00;;
63693;SDS011;49839;51.798;10.954;2023-09-18T00:06:00;3.95;;;2.75;;
63693;SDS011;49839;51.798;10.954;2023-09-18T00:08:27;5.10;;;3.22;;
63693;SDS011;49839;51.798;10.954;2023-09-18T00:10:55;5.95;;;3.05;;
63693;SDS011;49839;51.798;10.954;2023-09-18T00:13:23;5.75;;;3.22;;
63693;SDS011;49839;51.798;10.954;2023-09-18T00:15:53;5.13;;;2.92;;
63693;SDS011;49839;51.798;10.954;2023-09-18T00:18:22;8.65;;;3.47;;
63693;SDS011;49839;51.798;10.954;2023-09-18T00:20:50;4.85;;;2.90;;
63693;SDS011;49839;51.798;10.954;2023-09-18T00:23:20;6.85;;;2.85;;
63693;SDS011;49839;51.798;10.954;2023-09-18T00:25:47;5.80;;;3.15;;
63693;SDS011;49839;51.798;10.954;2023-09-18T00:28:15;5.05;;;3.13;;
63693;SDS011;49839;51.798;10.954;2023-09-18T00:30:46;6.40;;;3.15;;
63693;SDS011;49839;51.798;10.954;2023-09-18T00:33:16;5.97;;;3.25;;
63693;SDS011;49839;51.798;10.954;2023-09-18T00:35:46;6.18;;;3.08;;
63693;SDS011;49839;51.798;10.954;2023-09-18T00:38:14;6.27;;;3.13;;
63693;SDS011;49839;51.798;10.954;2023-09-18T00:40:43;6.00;;;3.00;;
63693;SDS011;49839;51.798;10.954;2023-09-18T00:43:11;5.45;;;3.65;;
63693;SDS011;49839;51.798;10.954;2023-09-18T00:45:39;6.75;;;3.60;;
63693;SDS011;49839;51.798;10.954;2023-09-18T00:48:09;6.63;;;3.50;;
63693;SDS011;49839;51.798;10.954;2023-09-18T00:50:37;6.90;;;3.40;;
63693;SDS011;49839;51.798;10.954;2023-09-18T00:53:07;6.00;;;3.28;;
63693;SDS011;49839;51.798;10.954;2023-09-18T00:58:05;6.28;;;3.13;;
63693;SDS011;49839;51.798;10.954;2023-09-18T01:00:34;5.47;;;2.88;;
63693;SDS011;49839;51.798;10.954;2023-09-18T01:03:02;4.53;;;3.13;;
63693;SDS011;49839;51.798;10.954;2023-09-18T01:05:31;4.75;;;3.15;;
63693;SDS011;49839;51.798;10.954;2023-09-18T01:07:59;7.97;;;3.53;;
63693;SDS011;49839;51.798;10.954;2023-09-18T01:10:29;5.10;;;3.20;;
63693;SDS011;49839;51.798;10.954;2023-09-18T01:13:03;4.10;;;2.80;;
63693;SDS011;49839;51.798;10.954;2023-09-18T01:15:40;7.15;;;3.25;;
63693;SDS011;49839;51.798;10.954;2023-09-18T01:18:15;7.65;;;3.30;;
63693;SDS011;49839;51.798;10.954;2023-09-18T01:20:44;6.35;;;3.20;;
63693;SDS011;49839;51.798;10.954;2023-09-18T01:23:13;5.75;;;3.00;;
63693;SDS011;49839;51.798;10.954;2023-09-18T01:25:41;6.38;;;3.38;;
63693;SDS011;49839;51.798;10.954;2023-09-18T01:28:09;6.90;;;3.30;;
63693;SDS011;49839;51.798;10.954;2023-09-18T01:30:36;8.05;;;3.40;;
63693;SDS011;49839;51.798;10.954;2023-09-18T01:33:04;4.72;;;3.10;;
63693;SDS011;49839;51.798;10.954;2023-09-18T01:35:33;5.47;;;3.38;;
63693;SDS011;49839;51.798;10.954;2023-09-18T01:38:02;5.78;;;3.00;;
63693;SDS011;49839;51.798;10.954;2023-09-18T01:40:32;4.82;;;2.90;;
63693;SDS011;49839;51.798;10.954;2023-09-18T01:43:00;5.05;;;3.08;;
63693;SDS011;49839;51.798;10.954;2023-09-18T01:45:28;6.28;;;3.03;;
63693;SDS011;49839;51.798;10.954;2023-09-18T01:47:55;6.15;;;3.03;;
63693;SDS011;49839;51.798;10.954;2023-09-18T01:50:24;7.30;;;3.45;;
63693;SDS011;49839;51.798;10.954;2023-09-18T01:52:52;6.57;;;3.20;;
63693;SDS011;49839;51.798;10.954;2023-09-18T01:55:20;4.80;;;2.90;;
63693;SDS011;49839;51.798;10.954;2023-09-18T01:57:49;4.70;;;2.72;;
63693;SDS011;49839;51.798;10.954;2023-09-18T02:00:17;6.65;;;3.10;;
63693;SDS011;49839;51.798;10.954;2023-09-18T02:02:45;5.28;;;2.88;;
63693;SDS011;49839;51.798;10.954;2023-09-18T02:05:18;4.05;;;2.80;;
63693;SDS011;49839;51.798;10.954;2023-09-18T02:07:45;5.53;;;3.13;;
63693;SDS011;49839;51.798;10.954;2023-09-18T02:10:13;5.45;;;3.58;;
63693;SDS011;49839;51.798;10.954;2023-09-18T02:12:41;4.43;;;2.65;;
63693;SDS011;49839;51.798;10.954;2023-09-18T02:15:10;5.13;;;3.22;;
63693;SDS011;49839;51.798;10.954;2023-09-18T02:17:38;7.53;;;3.05;;
63693;SDS011;49839;51.798;10.954;2023-09-18T02:20:07;6.97;;;3.10;;
63693;SDS011;49839;51.798;10.954;2023-09-18T02:22:38;6.82;;;3.28;;
63693;SDS011;49839;51.798;10.954;2023-09-18T02:25:06;4.68;;;3.05;;
63693;SDS011;49839;51.798;10.954;2023-09-18T02:27:34;6.07;;;2.67;;
63693;SDS011;49839;51.798;10.954;2023-09-18T02:30:02;4.43;;;3.00;;
63693;SDS011;49839;51.798;10.954;2023-09-18T02:32:32;7.00;;;3.35;;
63693;SDS011;49839;51.798;10.954;2023-09-18T02:35:01;6.45;;;2.92;;
63693;SDS011;49839;51.798;10.954;2023-09-18T02:37:28;4.82;;;2.72;;
63693;SDS011;49839;51.798;10.954;2023-09-18T02:39:56;7.13;;;2.85;;
63693;SDS011;49839;51.798;10.954;2023-09-18T02:42:24;7.65;;;3.28;;
63693;SDS011;49839;51.798;10.954;2023-09-18T02:44:51;4.68;;;2.70;;
63693;SDS011;49839;51.798;10.954;2023-09-18T02:47:19;5.28;;;2.88;;
63693;SDS011;49839;51.798;10.954;2023-09-18T02:49:48;7.05;;;3.08;;
63693;SDS011;49839;51.798;10.954;2023-09-18T02:52:16;4.30;;;2.78;;
63693;SDS011;49839;51.798;10.954;2023-09-18T02:54:44;8.35;;;3.00;;
63693;SDS011;49839;51.798;10.954;2023-09-18T02:57:11;5.53;;;3.38;;
63693;SDS011;49839;51.798;10.954;2023-09-18T02:59:39;5.93;;;2.88;;
63693;SDS011;49839;51.798;10.954;2023-09-18T03:02:07;7.85;;;2.90;;
63693;SDS011;49839;51.798;10.954;2023-09-18T03:04:35;5.78;;;3.08;;
63693;SDS011;49839;51.798;10.954;2023-09-18T03:07:04;6.22;;;3.15;;
63693;SDS011;49839;51.798;10.954;2023-09-18T03:11:59;5.95;;;3.13;;
63693;SDS011;49839;51.798;10.954;2023-09-18T03:14:27;4.32;;;3.00;;
63693;SDS011;49839;51.798;10.954;2023-09-18T03:16:55;6.25;;;3.42;;
63693;SDS011;49839;51.798;10.954;2023-09-18T03:19:23;5.55;;;2.80;;
63693;SDS011;49839;51.798;10.954;2023-09-18T03:21:50;7.35;;;3.25;;
63693;SDS011;49839;51.798;10.954;2023-09-18T03:24:20;5.20;;;3.20;;
63693;SDS011;49839;51.798;10.954;2023-09-18T03:26:47;4.80;;;3.20;;
63693;SDS011;49839;51.798;10.954;2023-09-18T03:29:15;6.28;;;3.25;;
63693;SDS011;49839;51.798;10.954;2023-09-18T03:31:43;4.38;;;2.88;;
63693;SDS011;49839;51.798;10.954;2023-09-18T03:34:11;4.13;;;2.72;;
63693;SDS011;49839;51.798;10.954;2023-09-18T03:36:39;5.93;;;2.75;;
63693;SDS011;49839;51.798;10.954;2023-09-18T03:39:07;4.68;;;3.10;;
63693;SDS011;49839;51.798;10.954;2023-09-18T03:41:37;5.05;;;2.97;;
63693;SDS011;49839;51.798;10.954;2023-09-18T03:44:05;6.38;;;3.08;;
63693;SDS011;49839;51.798;10.954;2023-09-18T03:46:33;4.25;;;3.00;;
63693;SDS011;49839;51.798;10.954;2023-09-18T03:49:00;5.40;;;2.75;;
63693;SDS011;49839;51.798;10.954;2023-09-18T03:51:29;3.43;;;2.40;;
63693;SDS011;49839;51.798;10.954;2023-09-18T03:53:56;4.97;;;2.70;;
63693;SDS011;49839;51.798;10.954;2023-09-18T03:56:24;5.88;;;2.88;;
63693;SDS011;49839;51.798;10.954;2023-09-18T03:58:53;4.72;;;2.22;;
63693;SDS011;49839;51.798;10.954;2023-09-18T04:03:49;4.35;;;2.65;;
63693;SDS011;49839;51.798;10.954;2023-09-18T04:06:17;5.05;;;2.50;;
63693;SDS011;49839;51.798;10.954;2023-09-18T04:08:46;4.75;;;2.90;;
63693;SDS011;49839;51.798;10.954;2023-09-18T04:11:14;8.70;;;3.00;;
63693;SDS011;49839;51.798;10.954;2023-09-18T04:13:42;4.50;;;2.80;;
63693;SDS011;49839;51.798;10.954;2023-09-18T04:16:11;6.45;;;2.90;;
63693;SDS011;49839;51.798;10.954;2023-09-18T04:18:43;4.63;;;2.80;;
63693;SDS011;49839;51.798;10.954;2023-09-18T04:21:10;5.82;;;3.05;;
63693;SDS011;49839;51.798;10.954;2023-09-18T04:23:38;5.50;;;2.90;;
63693;SDS011;49839;51.798;10.954;2023-09-18T04:26:06;4.70;;;2.50;;
63693;SDS011;49839;51.798;10.954;2023-09-18T04:28:34;4.72;;;2.78;;
63693;SDS011;49839;51.798;10.954;2023-09-18T04:31:01;4.78;;;2.42;;
63693;SDS011;49839;51.798;10.954;2023-09-18T04:33:30;4.22;;;2.55;;
63693;SDS011;49839;51.798;10.954;2023-09-18T04:38:26;4.82;;;2.50;;
63693;SDS011;49839;51.798;10.954;2023-09-18T04:40:57;4.72;;;2.75;;
63693;SDS011;49839;51.798;10.954;2023-09-18T04:43:25;3.85;;;2.25;;
63693;SDS011;49839;51.798;10.954;2023-09-18T04:45:56;4.65;;;2.33;;
63693;SDS011;49839;51.798;10.954;2023-09-18T04:48:23;3.67;;;2.20;;
63693;SDS011;49839;51.798;10.954;2023-09-18T04:50:53;4.35;;;2.58;;
63693;SDS011;49839;51.798;10.954;2023-09-18T04:53:20;4.53;;;2.50;;
63693;SDS011;49839;51.798;10.954;2023-09-18T04:55:48;4.32;;;2.50;;
63693;SDS011;49839;51.798;10.954;2023-09-18T04:58:16;5.93;;;2.50;;
63693;SDS011;49839;51.798;10.954;2023-09-18T05:00:44;4.28;;;2.67;;
63693;SDS011;49839;51.798;10.954;2023-09-18T05:03:12;5.53;;;3.00;;
63693;SDS011;49839;51.798;10.954;2023-09-18T05:05:40;5.45;;;2.30;;
63693;SDS011;49839;51.798;10.954;2023-09-18T05:08:11;4.97;;;2.50;;
63693;SDS011;49839;51.798;10.954;2023-09-18T05:10:39;4.68;;;2.88;;
63693;SDS011;49839;51.798;10.954;2023-09-18T05:13:07;5.95;;;2.60;;
63693;SDS011;49839;51.798;10.954;2023-09-18T05:15:35;5.05;;;2.58;;
63693;SDS011;49839;51.798;10.954;2023-09-18T05:18:03;4.83;;;2.80;;
63693;SDS011;49839;51.798;10.954;2023-09-18T05:20:31;4.22;;;2.60;;
63693;SDS011;49839;51.798;10.954;2023-09-18T05:23:00;5.18;;;2.78;;
63693;SDS011;49839;51.798;10.954;2023-09-18T05:25:30;6.78;;;2.88;;
63693;SDS011;49839;51.798;10.954;2023-09-18T05:27:59;4.32;;;2.40;;
63693;SDS011;49839;51.798;10.954;2023-09-18T05:30:30;5.53;;;2.80;;
63693;SDS011;49839;51.798;10.954;2023-09-18T05:33:00;5.82;;;2.78;;
63693;SDS011;49839;51.798;10.954;2023-09-18T05:35:31;5.70;;;2.70;;
63693;SDS011;49839;51.798;10.954;2023-09-18T05:37:59;4.63;;;2.70;;
63693;SDS011;49839;51.798;10.954;2023-09-18T05:40:27;4.85;;;2.70;;
63693;SDS011;49839;51.798;10.954;2023-09-18T05:42:56;3.95;;;2.38;;
63693;SDS011;49839;51.798;10.954;2023-09-18T05:45:24;4.38;;;2.53;;
63693;SDS011;49839;51.798;10.954;2023-09-18T05:47:53;7.83;;;2.70;;
63693;SDS011;49839;51.798;10.954;2023-09-18T05:50:20;3.33;;;2.28;;
63693;SDS011;49839;51.798;10.954;2023-09-18T05:52:48;4.70;;;2.50;;
63693;SDS011;49839;51.798;10.954;2023-09-18T05:55:16;5.95;;;2.78;;
63693;SDS011;49839;51.798;10.954;2023-09-18T05:57:44;4.00;;;2.85;;
63693;SDS011;49839;51.798;10.954;2023-09-18T06:00:13;4.50;;;2.58;;
63693;SDS011;49839;51.798;10.954;2023-09-18T06:02:43;5.82;;;2.70;;
63693;SDS011;49839;51.798;10.954;2023-09-18T06:05:12;3.03;;;2.33;;
63693;SDS011;49839;51.798;10.954;2023-09-18T06:07:42;5.05;;;2.47;;
63693;SDS011;49839;51.798;10.954;2023-09-18T06:10:10;4.27;;;2.63;;
63693;SDS011;49839;51.798;10.954;2023-09-18T06:12:38;5.03;;;2.42;;
63693;SDS011;49839;51.798;10.954;2023-09-18T06:15:06;3.45;;;2.40;;
63693;SDS011;49839;51.798;10.954;2023-09-18T06:17:37;4.10;;;2.40;;
63693;SDS011;49839;51.798;10.954;2023-09-18T06:20:06;5.05;;;2.45;;
63693;SDS011;49839;51.798;10.954;2023-09-18T06:22:37;4.05;;;2.30;;
63693;SDS011;49839;51.798;10.954;2023-09-18T06:25:05;3.78;;;2.70;;
63693;SDS011;49839;51.798;10.954;2023-09-18T06:27:34;4.72;;;2.40;;
63693;SDS011;49839;51.798;10.954;2023-09-18T06:30:03;4.05;;;2.53;;
63693;SDS011;49839;51.798;10.954;2023-09-18T06:32:31;4.45;;;2.30;;
63693;SDS011;49839;51.798;10.954;2023-09-18T06:35:00;3.38;;;2.28;;
63693;SDS011;49839;51.798;10.954;2023-09-18T06:39:56;3.80;;;2.47;;
63693;SDS011;49839;51.798;10.954;2023-09-18T06:42:24;5.53;;;2.58;;
63693;SDS011;49839;51.798;10.954;2023-09-18T06:44:51;5.70;;;2.50;;
63693;SDS011;49839;51.798;10.954;2023-09-18T06:47:19;3.67;;;2.50;;
63693;SDS011;49839;51.798;10.954;2023-09-18T06:49:47;4.47;;;2.53;;
63693;SDS011;49839;51.798;10.954;2023-09-18T06:52:16;4.78;;;2.38;;
63693;SDS011;49839;51.798;10.954;2023-09-18T06:54:44;3.70;;;2.33;;
63693;SDS011;49839;51.798;10.954;2023-09-18T06:57:11;4.55;;;2.50;;
63693;SDS011;49839;51.798;10.954;2023-09-18T06:59:39;4.50;;;2.55;;
63693;SDS011;49839;51.798;10.954;2023-09-18T07:02:07;5.38;;;2.53;;
63693;SDS011;49839;51.798;10.954;2023-09-18T07:04:35;5.13;;;2.50;;
63693;SDS011;49839;51.798;10.954;2023-09-18T07:07:03;5.07;;;2.40;;
63693;SDS011;49839;51.798;10.954;2023-09-18T07:09:32;5.53;;;2.25;;
63693;SDS011;49839;51.798;10.954;2023-09-18T07:12:04;4.40;;;2.45;;
63693;SDS011;49839;51.798;10.954;2023-09-18T07:14:32;4.97;;;2.70;;
63693;SDS011;49839;51.798;10.954;2023-09-18T07:17:00;4.00;;;2.40;;
63693;SDS011;49839;51.798;10.954;2023-09-18T07:19:28;3.92;;;2.50;;
63693;SDS011;49839;51.798;10.954;2023-09-18T07:21:56;5.95;;;2.60;;
63693;SDS011;49839;51.798;10.954;2023-09-18T07:24:24;3.17;;;2.20;;
63693;SDS011;49839;51.798;10.954;2023-09-18T07:26:53;3.75;;;2.45;;
63693;SDS011;49839;51.798;10.954;2023-09-18T07:29:23;4.40;;;2.40;;
63693;SDS011;49839;51.798;10.954;2023-09-18T07:31:52;4.38;;;2.40;;
63693;SDS011;49839;51.798;10.954;2023-09-18T07:34:20;6.20;;;2.75;;
63693;SDS011;49839;51.798;10.954;2023-09-18T07:36:47;3.65;;;2.40;;
63693;SDS011;49839;51.798;10.954;2023-09-18T07:39:20;5.00;;;2.38;;
63693;SDS011;49839;51.798;10.954;2023-09-18T07:41:48;2.95;;;2.25;;
63693;SDS011;49839;51.798;10.954;2023-09-18T07:44:20;5.75;;;2.38;;
63693;SDS011;49839;51.798;10.954;2023-09-18T07:46:48;3.28;;;2.40;;
63693;SDS011;49839;51.798;10.954;2023-09-18T07:49:15;3.63;;;2.33;;
63693;SDS011;49839;51.798;10.954;2023-09-18T07:51:43;6.47;;;2.60;;
63693;SDS011;49839;51.798;10.954;2023-09-18T07:54:13;4.53;;;2.47;;
63693;SDS011;49839;51.798;10.954;2023-09-18T07:56:41;4.53;;;2.40;;
63693;SDS011;49839;51.798;10.954;2023-09-18T07:59:09;3.85;;;2.40;;
63693;SDS011;49839;51.798;10.954;2023-09-18T08:01:39;4.07;;;2.40;;
63693;SDS011;49839;51.798;10.954;2023-09-18T08:04:06;4.43;;;2.38;;
63693;SDS011;49839;51.798;10.954;2023-09-18T08:06:34;6.13;;;2.55;;
63693;SDS011;49839;51.798;10.954;2023-09-18T08:09:02;4.13;;;2.25;;
63693;SDS011;49839;51.798;10.954;2023-09-18T08:11:30;4.60;;;2.55;;
63693;SDS011;49839;51.798;10.954;2023-09-18T08:13:59;5.35;;;2.63;;
63693;SDS011;49839;51.798;10.954;2023-09-18T08:16:26;4.30;;;2.50;;
63693;SDS011;49839;51.798;10.954;2023-09-18T08:18:57;5.32;;;2.60;;
63693;SDS011;49839;51.798;10.954;2023-09-18T08:21:24;6.00;;;2.40;;
63693;SDS011;49839;51.798;10.954;2023-09-18T08:23:55;3.78;;;2.33;;
63693;SDS011;49839;51.798;10.954;2023-09-18T08:26:23;5.40;;;2.53;;
63693;SDS011;49839;51.798;10.954;2023-09-18T08:28:51;4.40;;;2.47;;
63693;SDS011;49839;51.798;10.954;2023-09-18T08:31:19;5.38;;;2.55;;
63693;SDS011;49839;51.798;10.954;2023-09-18T08:33:47;4.68;;;2.50;;
63693;SDS011;49839;51.798;10.954;2023-09-18T08:36:16;7.18;;;2.45;;
63693;SDS011;49839;51.798;10.954;2023-09-18T08:38:44;6.45;;;2.55;;
63693;SDS011;49839;51.798;10.954;2023-09-18T08:41:13;5.28;;;2.53;;
63693;SDS011;49839;51.798;10.954;2023-09-18T08:43:45;5.20;;;2.20;;
63693;SDS011;49839;51.798;10.954;2023-09-18T08:46:15;5.55;;;2.35;;
63693;SDS011;49839;51.798;10.954;2023-09-18T08:48:43;4.30;;;1.92;;
63693;SDS011;49839;51.798;10.954;2023-09-18T08:51:12;7.00;;;2.45;;
63693;SDS011;49839;51.798;10.954;2023-09-18T08:53:42;6.13;;;2.40;;
63693;SDS011;49839;51.798;10.954;2023-09-18T08:56:10;7.47;;;2.70;;
63693;SDS011;49839;51.798;10.954;2023-09-18T08:58:40;9.20;;;2.92;;
63693;SDS011;49839;51.798;10.954;2023-09-18T09:01:09;8.43;;;2.55;;
63693;SDS011;49839;51.798;10.954;2023-09-18T09:03:37;5.22;;;2.67;;
63693;SDS011;49839;51.798;10.954;2023-09-18T09:06:06;7.20;;;2.55;;
63693;SDS011;49839;51.798;10.954;2023-09-18T09:08:34;6.53;;;2.33;;
63693;SDS011;49839;51.798;10.954;2023-09-18T09:11:04;8.43;;;2.40;;
63693;SDS011;49839;51.798;10.954;2023-09-18T09:13:32;8.98;;;2.42;;
63693;SDS011;49839;51.798;10.954;2023-09-18T09:16:07;6.22;;;2.33;;
63693;SDS011;49839;51.798;10.954;2023-09-18T09:18:47;9.38;;;2.20;;
63693;SDS011;49839;51.798;10.954;2023-09-18T09:21:17;9.48;;;2.50;;
63693;SDS011;49839;51.798;10.954;2023-09-18T09:23:45;11.50;;;2.38;;
63693;SDS011;49839;51.798;10.954;2023-09-18T09:26:17;7.93;;;2.67;;
63693;SDS011;49839;51.798;10.954;2023-09-18T09:28:45;7.57;;;2.42;;
63693;SDS011;49839;51.798;10.954;2023-09-18T09:31:22;9.77;;;2.60;;
63693;SDS011;49839;51.798;10.954;2023-09-18T09:33:54;5.55;;;2.03;;
63693;SDS011;49839;51.798;10.954;2023-09-18T09:36:22;5.80;;;2.05;;
63693;SDS011;49839;51.798;10.954;2023-09-18T09:38:54;7.60;;;2.20;;
63693;SDS011;49839;51.798;10.954;2023-09-18T09:41:24;7.78;;;2.10;;
63693;SDS011;49839;51.798;10.954;2023-09-18T09:43:54;10.98;;;2.13;;
63693;SDS011;49839;51.798;10.954;2023-09-18T09:46:22;8.77;;;2.22;;
63693;SDS011;49839;51.798;10.954;2023-09-18T09:51:27;7.15;;;2.10;;
63693;SDS011;49839;51.798;10.954;2023-09-18T09:53:55;9.85;;;3.47;;
63693;SDS011;49839;51.798;10.954;2023-09-18T09:59:24;6.38;;;2.00;;
63693;SDS011;49839;51.798;10.954;2023-09-18T10:01:53;5.68;;;1.80;;
63693;SDS011;49839;51.798;10.954;2023-09-18T10:04:21;5.57;;;1.88;;
63693;SDS011;49839;51.798;10.954;2023-09-18T10:06:54;6.28;;;1.63;;
63693;SDS011;49839;51.798;10.954;2023-09-18T10:09:26;10.25;;;2.38;;
63693;SDS011;49839;51.798;10.954;2023-09-18T10:11:56;8.75;;;1.95;;
63693;SDS011;49839;51.798;10.954;2023-09-18T10:14:29;10.48;;;2.00;;
63693;SDS011;49839;51.798;10.954;2023-09-18T10:17:11;6.25;;;1.75;;
63693;SDS011;49839;51.798;10.954;2023-09-18T10:19:45;5.85;;;1.70;;
63693;SDS011;49839;51.798;10.954;2023-09-18T10:22:24;6.38;;;1.63;;
63693;SDS011;49839;51.798;10.954;2023-09-18T10:27:39;7.45;;;1.90;;
63693;SDS011;49839;51.798;10.954;2023-09-18T10:30:10;8.30;;;1.90;;
63693;SDS011;49839;51.798;10.954;2023-09-18T10:32:41;7.72;;;1.70;;
63693;SDS011;49839;51.798;10.954;2023-09-18T10:35:09;7.13;;;1.73;;
63693;SDS011;49839;51.798;10.954;2023-09-18T10:40:07;10.23;;;1.77;;
63693;SDS011;49839;51.798;10.954;2023-09-18T10:42:37;8.13;;;1.50;;
63693;SDS011;49839;51.798;10.954;2023-09-18T10:45:10;8.60;;;1.70;;
63693;SDS011;49839;51.798;10.954;2023-09-18T10:47:39;9.43;;;1.58;;
63693;SDS011;49839;51.798;10.954;2023-09-18T10:50:09;6.88;;;1.70;;
63693;SDS011;49839;51.798;10.954;2023-09-18T10:52:42;8.55;;;1.73;;
63693;SDS011;49839;51.798;10.954;2023-09-18T10:55:11;7.40;;;1.50;;
63693;SDS011;49839;51.798;10.954;2023-09-18T10:57:49;8.40;;;1.77;;
63693;SDS011;49839;51.798;10.954;2023-09-18T11:00:20;4.18;;;1.50;;
63693;SDS011;49839;51.798;10.954;2023-09-18T11:02:51;5.45;;;1.35;;
63693;SDS011;49839;51.798;10.954;2023-09-18T11:05:28;7.10;;;1.58;;
63693;SDS011;49839;51.798;10.954;2023-09-18T11:11:00;7.03;;;1.83;;
63693;SDS011;49839;51.798;10.954;2023-09-18T11:16:15;8.15;;;1.70;;
63693;SDS011;49839;51.798;10.954;2023-09-18T11:18:50;6.45;;;1.50;;
63693;SDS011;49839;51.798;10.954;2023-09-18T11:21:23;3.05;;;1.20;;
63693;SDS011;49839;51.798;10.954;2023-09-18T11:23:58;5.25;;;1.35;;
63693;SDS011;49839;51.798;10.954;2023-09-18T11:26:29;4.28;;;1.30;;
63693;SDS011;49839;51.798;10.954;2023-09-18T11:29:01;5.20;;;1.23;;
63693;SDS011;49839;51.798;10.954;2023-09-18T11:31:42;8.55;;;1.60;;
63693;SDS011;49839;51.798;10.954;2023-09-18T11:34:12;8.48;;;1.35;;
63693;SDS011;49839;51.798;10.954;2023-09-18T11:39:08;11.63;;;2.20;;
63693;SDS011;49839;51.798;10.954;2023-09-18T11:41:38;8.63;;;1.70;;
63693;SDS011;49839;51.798;10.954;2023-09-18T11:47:04;6.93;;;1.50;;
63693;SDS011;49839;51.798;10.954;2023-09-18T11:49:39;6.93;;;1.45;;
63693;SDS011;49839;51.798;10.954;2023-09-18T11:52:13;5.13;;;1.40;;
63693;SDS011;49839;51.798;10.954;2023-09-18T11:54:41;7.60;;;1.60;;
63693;SDS011;49839;51.798;10.954;2023-09-18T11:57:10;6.33;;;1.43;;
63693;SDS011;49839;51.798;10.954;2023-09-18T11:59:39;6.88;;;1.45;;
63693;SDS011;49839;51.798;10.954;2023-09-18T12:02:12;8.80;;;1.52;;
63693;SDS011;49839;51.798;10.954;2023-09-18T12:04:47;5.72;;;1.58;;
63693;SDS011;49839;51.798;10.954;2023-09-18T12:07:15;7.63;;;1.50;;
63693;SDS011;49839;51.798;10.954;2023-09-18T12:12:11;6.70;;;1.52;;
63693;SDS011;49839;51.798;10.954;2023-09-18T12:14:40;4.97;;;1.27;;
63693;SDS011;49839;51.798;10.954;2023-09-18T12:17:15;8.40;;;1.42;;
63693;SDS011;49839;51.798;10.954;2023-09-18T12:22:30;5.45;;;1.40;;
63693;SDS011;49839;51.798;10.954;2023-09-18T12:25:08;9.75;;;1.60;;
63693;SDS011;49839;51.798;10.954;2023-09-18T12:27:39;7.85;;;1.40;;
63693;SDS011;49839;51.798;10.954;2023-09-18T12:30:08;8.85;;;1.35;;
63693;SDS011;49839;51.798;10.954;2023-09-18T12:32:38;8.30;;;1.45;;
63693;SDS011;49839;51.798;10.954;2023-09-18T12:35:06;13.30;;;1.38;;
63693;SDS011;49839;51.798;10.954;2023-09-18T12:37:35;6.28;;;1.48;;
63693;SDS011;49839;51.798;10.954;2023-09-18T12:40:07;7.80;;;1.33;;
63693;SDS011;49839;51.798;10.954;2023-09-18T12:42:47;4.18;;;1.00;;
63693;SDS011;49839;51.798;10.954;2023-09-18T12:45:16;5.13;;;1.15;;
63693;SDS011;49839;51.798;10.954;2023-09-18T12:47:45;6.57;;;1.30;;
63693;SDS011;49839;51.798;10.954;2023-09-18T12:50:14;8.75;;;1.85;;
63693;SDS011;49839;51.798;10.954;2023-09-18T12:52:41;6.13;;;1.30;;
63693;SDS011;49839;51.798;10.954;2023-09-18T12:55:19;8.43;;;1.42;;
63693;SDS011;49839;51.798;10.954;2023-09-18T12:57:48;6.68;;;1.35;;
63693;SDS011;49839;51.798;10.954;2023-09-18T13:00:17;5.63;;;1.35;;
63693;SDS011;49839;51.798;10.954;2023-09-18T13:02:48;5.60;;;1.10;;
63693;SDS011;49839;51.798;10.954;2023-09-18T13:05:21;8.57;;;1.42;;
63693;SDS011;49839;51.798;10.954;2023-09-18T13:07:53;10.60;;;1.52;;
63693;SDS011;49839;51.798;10.954;2023-09-18T13:10:21;9.55;;;1.70;;
63693;SDS011;49839;51.798;10.954;2023-09-18T13:12:52;8.02;;;1.45;;
63693;SDS011;49839;51.798;10.954;2023-09-18T13:15:25;5.97;;;1.55;;
63693;SDS011;49839;51.798;10.954;2023-09-18T13:17:56;8.52;;;1.55;;
63693;SDS011;49839;51.798;10.954;2023-09-18T13:20:25;5.75;;;1.02;;
63693;SDS011;49839;51.798;10.954;2023-09-18T13:22:56;6.38;;;1.10;;
63693;SDS011;49839;51.798;10.954;2023-09-18T13:25:25;6.07;;;1.50;;
63693;SDS011;49839;51.798;10.954;2023-09-18T13:27:55;5.13;;;1.40;;
63693;SDS011;49839;51.798;10.954;2023-09-18T13:30:23;7.15;;;1.30;;
63693;SDS011;49839;51.798;10.954;2023-09-18T13:33:00;9.00;;;1.35;;
63693;SDS011;49839;51.798;10.954;2023-09-18T13:35:32;5.40;;;1.35;;
63693;SDS011;49839;51.798;10.954;2023-09-18T13:38:00;8.02;;;1.42;;
63693;SDS011;49839;51.798;10.954;2023-09-18T13:40:28;6.70;;;1.25;;
63693;SDS011;49839;51.798;10.954;2023-09-18T13:42:56;7.43;;;1.25;;
63693;SDS011;49839;51.798;10.954;2023-09-18T13:45:24;9.95;;;1.50;;
63693;SDS011;49839;51.798;10.954;2023-09-18T13:47:52;9.02;;;1.55;;
63693;SDS011;49839;51.798;10.954;2023-09-18T13:50:22;7.95;;;1.50;;
63693;SDS011;49839;51.798;10.954;2023-09-18T13:52:49;9.10;;;1.63;;
63693;SDS011;49839;51.798;10.954;2023-09-18T13:55:17;5.50;;;1.50;;
63693;SDS011;49839;51.798;10.954;2023-09-18T13:57:45;4.90;;;1.30;;
63693;SDS011;49839;51.798;10.954;2023-09-18T14:00:13;6.65;;;1.50;;
63693;SDS011;49839;51.798;10.954;2023-09-18T14:02:41;5.30;;;1.20;;
63693;SDS011;49839;51.798;10.954;2023-09-18T14:05:09;9.38;;;1.52;;
63693;SDS011;49839;51.798;10.954;2023-09-18T14:07:44;6.72;;;1.25;;
63693;SDS011;49839;51.798;10.954;2023-09-18T14:10:13;9.50;;;1.50;;
63693;SDS011;49839;51.798;10.954;2023-09-18T14:12:43;6.05;;;1.35;;
63693;SDS011;49839;51.798;10.954;2023-09-18T14:15:11;9.52;;;1.95;;
63693;SDS011;49839;51.798;10.954;2023-09-18T14:17:39;8.38;;;1.10;;
63693;SDS011;49839;51.798;10.954;2023-09-18T14:20:07;9.00;;;1.50;;
63693;SDS011;49839;51.798;10.954;2023-09-18T14:22:36;7.68;;;1.60;;
63693;SDS011;49839;51.798;10.954;2023-09-18T14:25:06;5.73;;;1.80;;
63693;SDS011;49839;51.798;10.954;2023-09-18T14:27:35;7.97;;;1.60;;
63693;SDS011;49839;51.798;10.954;2023-09-18T14:30:03;5.65;;;1.40;;
63693;SDS011;49839;51.798;10.954;2023-09-18T14:32:33;10.70;;;1.58;;
63693;SDS011;49839;51.798;10.954;2023-09-18T14:35:03;9.00;;;1.40;;
63693;SDS011;49839;51.798;10.954;2023-09-18T14:37:36;7.57;;;1.38;;
63693;SDS011;49839;51.798;10.954;2023-09-18T14:40:06;5.88;;;1.23;;
63693;SDS011;49839;51.798;10.954;2023-09-18T14:42:42;7.40;;;1.52;;
63693;SDS011;49839;51.798;10.954;2023-09-18T14:45:10;7.57;;;1.63;;
63693;SDS011;49839;51.798;10.954;2023-09-18T14:47:39;6.72;;;1.42;;
63693;SDS011;49839;51.798;10.954;2023-09-18T14:50:07;7.28;;;1.83;;
63693;SDS011;49839;51.798;10.954;2023-09-18T14:52:35;7.55;;;1.50;;
63693;SDS011;49839;51.798;10.954;2023-09-18T14:55:02;6.13;;;1.63;;
63693;SDS011;49839;51.798;10.954;2023-09-18T15:00:04;7.30;;;1.27;;
63693;SDS011;49839;51.798;10.954;2023-09-18T15:02:33;7.72;;;1.52;;
63693;SDS011;49839;51.798;10.954;2023-09-18T15:05:03;7.88;;;1.83;;
63693;SDS011;49839;51.798;10.954;2023-09-18T15:07:35;9.05;;;1.40;;
63693;SDS011;49839;51.798;10.954;2023-09-18T15:10:03;5.35;;;1.23;;
63693;SDS011;49839;51.798;10.954;2023-09-18T15:15:01;6.35;;;1.40;;
63693;SDS011;49839;51.798;10.954;2023-09-18T15:17:32;4.70;;;1.50;;
63693;SDS011;49839;51.798;10.954;2023-09-18T15:19:59;7.07;;;1.52;;
63693;SDS011;49839;51.798;10.954;2023-09-18T15:22:31;9.13;;;1.60;;
63693;SDS011;49839;51.798;10.954;2023-09-18T15:24:59;7.28;;;1.90;;
63693;SDS011;49839;51.798;10.954;2023-09-18T15:27:27;7.20;;;1.60;;
63693;SDS011;49839;51.798;10.954;2023-09-18T15:29:56;7.63;;;1.52;;